XGO225 EDXW-EDHL
Flight info
| Callsign | XGO225 |
|---|---|
| Flight time | 0h 35m |
| Altitude | 23000 |
| Route | OLDIP1B OLDIP DCT PIZID DCT EKERN T905 BOGMU BOGMU2R |
| Aircraft | P180/L-SBDFGM3RWXY/LB1 |
Departure
| Time | 2026-04-24 16:21 |
|---|---|
| Airport | Westerland Sylt Airport (EDXW) |
Arrival
| Time | 2026-04-24 16:56 |
|---|---|
| Airport | Lübeck Blankensee Airport (EDHL) |
| Time | Latitude | Longitude | Altitude | Speed | Heading |
|---|---|---|---|---|---|
| 2026-04-24 15:52 | 54.91192 | 8.32549 | 52 ft | 0 kts | 243° |
| 2026-04-24 16:14 | 54.91193 | 8.32541 | 52 ft | 2 kts | 294° |
| 2026-04-24 16:14 | 54.91163 | 8.32631 | 52 ft | 11 kts | 146° |
| 2026-04-24 16:15 | 54.91140 | 8.32658 | 52 ft | 13 kts | 149° |
| 2026-04-24 16:15 | 54.91001 | 8.33029 | 53 ft | 23 kts | 133° |
| 2026-04-24 16:16 | 54.90742 | 8.33221 | 49 ft | 18 kts | 175° |
| 2026-04-24 16:16 | 54.90592 | 8.33244 | 50 ft | 17 kts | 175° |
| 2026-04-24 16:17 | 54.90297 | 8.33558 | 52 ft | 24 kts | 122° |
| 2026-04-24 16:17 | 54.90235 | 8.34095 | 52 ft | 22 kts | 90° |
| 2026-04-24 16:18 | 54.90279 | 8.34574 | 52 ft | 16 kts | 81° |
| 2026-04-24 16:18 | 54.90320 | 8.34980 | 52 ft | 7 kts | 77° |
| 2026-04-24 16:18 | 54.90333 | 8.35058 | 51 ft | 0 kts | 59° |
| 2026-04-24 16:20 | 54.90370 | 8.35153 | 52 ft | 9 kts | 51° |
| 2026-04-24 16:20 | 54.90418 | 8.35171 | 53 ft | 13 kts | 329° |
| 2026-04-24 16:21 | 54.91651 | 8.33619 | 1447 ft | 150 kts | 324° |
| 2026-04-24 16:21 | 54.92485 | 8.32579 | 3122 ft | 158 kts | 326° |
| 2026-04-24 16:21 | 54.93443 | 8.31382 | 3850 ft | 174 kts | 326° |
| 2026-04-24 16:22 | 54.94531 | 8.30055 | 3996 ft | 199 kts | 326° |
| 2026-04-24 16:22 | 54.96686 | 8.27409 | 3995 ft | 182 kts | 326° |
| 2026-04-24 16:22 | 54.97581 | 8.25907 | 3994 ft | 180 kts | 307° |
| 2026-04-24 16:23 | 54.98043 | 8.23875 | 3993 ft | 184 kts | 288° |
| 2026-04-24 16:23 | 54.97999 | 8.21656 | 4074 ft | 187 kts | 263° |
| 2026-04-24 16:23 | 54.97453 | 8.19614 | 4192 ft | 192 kts | 243° |
| 2026-04-24 16:24 | 54.96230 | 8.16770 | 4698 ft | 181 kts | 242° |
| 2026-04-24 16:24 | 54.95627 | 8.15315 | 5101 ft | 198 kts | 242° |
| 2026-04-24 16:24 | 54.94644 | 8.13427 | 5605 ft | 229 kts | 219° |
| 2026-04-24 16:24 | 54.93040 | 8.12805 | 6310 ft | 245 kts | 182° |
| 2026-04-24 16:25 | 54.91423 | 8.13799 | 6996 ft | 253 kts | 145° |
| 2026-04-24 16:25 | 54.90066 | 8.15771 | 7649 ft | 256 kts | 138° |
| 2026-04-24 16:25 | 54.88723 | 8.17827 | 8299 ft | 258 kts | 139° |
| 2026-04-24 16:26 | 54.85871 | 8.21861 | 9190 ft | 264 kts | 141° |
| 2026-04-24 16:26 | 54.84453 | 8.23873 | 9524 ft | 264 kts | 141° |
| 2026-04-24 16:26 | 54.81490 | 8.27738 | 9885 ft | 271 kts | 150° |
| 2026-04-24 16:27 | 54.79876 | 8.29453 | 10019 ft | 273 kts | 148° |
| 2026-04-24 16:27 | 54.78278 | 8.31253 | 10139 ft | 274 kts | 148° |
| 2026-04-24 16:27 | 54.76650 | 8.33045 | 10151 ft | 279 kts | 149° |
| 2026-04-24 16:27 | 54.75174 | 8.35227 | 10148 ft | 282 kts | 125° |
| 2026-04-24 16:28 | 54.74124 | 8.38112 | 10146 ft | 284 kts | 119° |
| 2026-04-24 16:28 | 54.73052 | 8.40907 | 10595 ft | 270 kts | 123° |
| 2026-04-24 16:28 | 54.71059 | 8.46017 | 12300 ft | 255 kts | 121° |
| 2026-04-24 16:29 | 54.70080 | 8.48585 | 12953 ft | 257 kts | 122° |
| 2026-04-24 16:29 | 54.69098 | 8.51118 | 13620 ft | 256 kts | 123° |
| 2026-04-24 16:29 | 54.67088 | 8.56310 | 14695 ft | 262 kts | 123° |
| 2026-04-24 16:30 | 54.65038 | 8.61604 | 15718 ft | 267 kts | 123° |
| 2026-04-24 16:30 | 54.64003 | 8.64270 | 16255 ft | 267 kts | 123° |
| 2026-04-24 16:30 | 54.62960 | 8.66957 | 16717 ft | 270 kts | 123° |
| 2026-04-24 16:31 | 54.61911 | 8.69647 | 17209 ft | 271 kts | 123° |
| 2026-04-24 16:31 | 54.60859 | 8.72353 | 17671 ft | 273 kts | 123° |
| 2026-04-24 16:31 | 54.59796 | 8.75081 | 18124 ft | 274 kts | 123° |
| 2026-04-24 16:31 | 54.58722 | 8.77831 | 18518 ft | 279 kts | 123° |
| 2026-04-24 16:32 | 54.57629 | 8.80614 | 19415 ft | 278 kts | 124° |
| 2026-04-24 16:32 | 54.56547 | 8.83389 | 20343 ft | 281 kts | 124° |
| 2026-04-24 16:32 | 54.55443 | 8.86212 | 21192 ft | 286 kts | 124° |
| 2026-04-24 16:32 | 54.54320 | 8.89076 | 22105 ft | 291 kts | 125° |
| 2026-04-24 16:33 | 54.53170 | 8.92005 | 22946 ft | 301 kts | 125° |
| 2026-04-24 16:33 | 54.51951 | 8.95113 | 23139 ft | 321 kts | 125° |
| 2026-04-24 16:33 | 54.50741 | 8.98435 | 23143 ft | 333 kts | 118° |
| 2026-04-24 16:33 | 54.49840 | 9.02033 | 23146 ft | 329 kts | 111° |
| 2026-04-24 16:34 | 54.49063 | 9.05705 | 23137 ft | 325 kts | 109° |
| 2026-04-24 16:34 | 54.48228 | 9.09306 | 23135 ft | 323 kts | 114° |
| 2026-04-24 16:34 | 54.47269 | 9.12773 | 23134 ft | 320 kts | 116° |
| 2026-04-24 16:34 | 54.46329 | 9.16239 | 23135 ft | 319 kts | 114° |
| 2026-04-24 16:35 | 54.45441 | 9.19724 | 23134 ft | 318 kts | 113° |
| 2026-04-24 16:35 | 54.44549 | 9.23189 | 23132 ft | 317 kts | 114° |
| 2026-04-24 16:35 | 54.43643 | 9.26641 | 23123 ft | 316 kts | 114° |
| 2026-04-24 16:35 | 54.42739 | 9.30079 | 23123 ft | 315 kts | 114° |
| 2026-04-24 16:36 | 54.41829 | 9.33543 | 22779 ft | 320 kts | 114° |
| 2026-04-24 16:36 | 54.40899 | 9.37029 | 22382 ft | 322 kts | 114° |
| 2026-04-24 16:36 | 54.39979 | 9.40541 | 22000 ft | 323 kts | 114° |
| 2026-04-24 16:36 | 54.39057 | 9.44061 | 21613 ft | 323 kts | 114° |
| 2026-04-24 16:37 | 54.38133 | 9.47569 | 21228 ft | 323 kts | 114° |
| 2026-04-24 16:37 | 54.37208 | 9.51071 | 20839 ft | 321 kts | 114° |
| 2026-04-24 16:37 | 54.36283 | 9.54552 | 20464 ft | 320 kts | 114° |
| 2026-04-24 16:37 | 54.35378 | 9.57972 | 20099 ft | 318 kts | 114° |
| 2026-04-24 16:38 | 54.34469 | 9.61409 | 19738 ft | 316 kts | 114° |
| 2026-04-24 16:38 | 54.33559 | 9.64820 | 19387 ft | 314 kts | 114° |
| 2026-04-24 16:38 | 54.32658 | 9.68213 | 19032 ft | 312 kts | 114° |
| 2026-04-24 16:38 | 54.31756 | 9.71595 | 18679 ft | 311 kts | 114° |
| 2026-04-24 16:39 | 54.30859 | 9.74952 | 18317 ft | 309 kts | 114° |
| 2026-04-24 16:39 | 54.29967 | 9.78290 | 17918 ft | 307 kts | 113° |
| 2026-04-24 16:39 | 54.29077 | 9.81614 | 17515 ft | 306 kts | 114° |
| 2026-04-24 16:39 | 54.28189 | 9.84925 | 17120 ft | 305 kts | 113° |
| 2026-04-24 16:40 | 54.27306 | 9.88214 | 16716 ft | 304 kts | 113° |
| 2026-04-24 16:40 | 54.26425 | 9.91492 | 16335 ft | 303 kts | 113° |
| 2026-04-24 16:40 | 54.25544 | 9.94762 | 15958 ft | 302 kts | 113° |
| 2026-04-24 16:40 | 54.24664 | 9.98024 | 15584 ft | 301 kts | 113° |
| 2026-04-24 16:41 | 54.23800 | 10.01230 | 15221 ft | 301 kts | 113° |
| 2026-04-24 16:41 | 54.22921 | 10.04471 | 14856 ft | 300 kts | 113° |
| 2026-04-24 16:41 | 54.22048 | 10.07702 | 14497 ft | 299 kts | 113° |
| 2026-04-24 16:41 | 54.21173 | 10.10925 | 14143 ft | 299 kts | 113° |
| 2026-04-24 16:42 | 54.20298 | 10.14144 | 13776 ft | 298 kts | 113° |
| 2026-04-24 16:42 | 54.19427 | 10.17350 | 13381 ft | 297 kts | 113° |
| 2026-04-24 16:42 | 54.18552 | 10.20557 | 12990 ft | 297 kts | 112° |
| 2026-04-24 16:42 | 54.17685 | 10.23746 | 12607 ft | 296 kts | 112° |
| 2026-04-24 16:43 | 54.16818 | 10.26914 | 12266 ft | 293 kts | 112° |
| 2026-04-24 16:43 | 54.15957 | 10.30062 | 11938 ft | 291 kts | 112° |
| 2026-04-24 16:43 | 54.15100 | 10.33186 | 11614 ft | 290 kts | 112° |
| 2026-04-24 16:43 | 54.14253 | 10.36286 | 11294 ft | 288 kts | 112° |
| 2026-04-24 16:44 | 54.13413 | 10.39345 | 10978 ft | 287 kts | 112° |
| 2026-04-24 16:44 | 54.12567 | 10.42415 | 10661 ft | 285 kts | 111° |
| 2026-04-24 16:44 | 54.11726 | 10.45477 | 10356 ft | 284 kts | 111° |
| 2026-04-24 16:44 | 54.10884 | 10.48522 | 10049 ft | 284 kts | 111° |
| 2026-04-24 16:45 | 54.10047 | 10.51567 | 9711 ft | 283 kts | 111° |
| 2026-04-24 16:45 | 54.09206 | 10.54597 | 9372 ft | 281 kts | 111° |
| 2026-04-24 16:45 | 54.08376 | 10.57607 | 9046 ft | 280 kts | 111° |
| 2026-04-24 16:45 | 54.07544 | 10.60595 | 8724 ft | 279 kts | 111° |
| 2026-04-24 16:46 | 54.06719 | 10.63579 | 8398 ft | 278 kts | 111° |
| 2026-04-24 16:46 | 54.05894 | 10.66546 | 8078 ft | 277 kts | 111° |
| 2026-04-24 16:46 | 54.05072 | 10.69502 | 7752 ft | 276 kts | 111° |
| 2026-04-24 16:46 | 54.04264 | 10.72409 | 7436 ft | 274 kts | 111° |
| 2026-04-24 16:47 | 54.03444 | 10.75330 | 7116 ft | 273 kts | 111° |
| 2026-04-24 16:47 | 54.02632 | 10.78252 | 6805 ft | 272 kts | 110° |
| 2026-04-24 16:47 | 54.01820 | 10.81154 | 6488 ft | 271 kts | 111° |
| 2026-04-24 16:47 | 54.01012 | 10.84038 | 6156 ft | 269 kts | 111° |
| 2026-04-24 16:48 | 54.00213 | 10.86889 | 5809 ft | 264 kts | 111° |
| 2026-04-24 16:48 | 53.99424 | 10.89670 | 5485 ft | 258 kts | 111° |
| 2026-04-24 16:48 | 53.98664 | 10.92397 | 5158 ft | 254 kts | 112° |
| 2026-04-24 16:48 | 53.97907 | 10.95087 | 4911 ft | 249 kts | 112° |
| 2026-04-24 16:49 | 53.97167 | 10.97715 | 4666 ft | 245 kts | 112° |
| 2026-04-24 16:49 | 53.96442 | 11.00287 | 4354 ft | 244 kts | 112° |
| 2026-04-24 16:49 | 53.95478 | 11.02635 | 4022 ft | 247 kts | 140° |
| 2026-04-24 16:49 | 53.93943 | 11.03794 | 3921 ft | 235 kts | 165° |
| 2026-04-24 16:50 | 53.92906 | 11.04320 | 3784 ft | 233 kts | 164° |
| 2026-04-24 16:50 | 53.90826 | 11.05393 | 3456 ft | 230 kts | 165° |
| 2026-04-24 16:50 | 53.89342 | 11.06155 | 3426 ft | 216 kts | 164° |
| 2026-04-24 16:50 | 53.87919 | 11.06821 | 3326 ft | 210 kts | 174° |
| 2026-04-24 16:51 | 53.86565 | 11.06291 | 3146 ft | 199 kts | 221° |
| 2026-04-24 16:51 | 53.85935 | 11.04414 | 3002 ft | 178 kts | 270° |
| 2026-04-24 16:51 | 53.85995 | 11.02391 | 2934 ft | 166 kts | 276° |
| 2026-04-24 16:51 | 53.85952 | 11.00509 | 2933 ft | 159 kts | 266° |
| 2026-04-24 16:52 | 53.85645 | 10.98712 | 2934 ft | 151 kts | 258° |
| 2026-04-24 16:52 | 53.85348 | 10.97062 | 2938 ft | 148 kts | 257° |
| 2026-04-24 16:52 | 53.85018 | 10.95380 | 2824 ft | 154 kts | 257° |
| 2026-04-24 16:52 | 53.84701 | 10.93647 | 2616 ft | 156 kts | 257° |
| 2026-04-24 16:53 | 53.84364 | 10.91879 | 2407 ft | 157 kts | 258° |
| 2026-04-24 16:53 | 53.84038 | 10.90143 | 2193 ft | 152 kts | 258° |
| 2026-04-24 16:53 | 53.83719 | 10.88473 | 1992 ft | 146 kts | 257° |
| 2026-04-24 16:53 | 53.83409 | 10.86851 | 1793 ft | 144 kts | 256° |
| 2026-04-24 16:54 | 53.83095 | 10.85243 | 1586 ft | 144 kts | 257° |
| 2026-04-24 16:54 | 53.82794 | 10.83646 | 1397 ft | 142 kts | 257° |
| 2026-04-24 16:54 | 53.82502 | 10.82183 | 1214 ft | 121 kts | 256° |
| 2026-04-24 16:54 | 53.82258 | 10.80922 | 1056 ft | 108 kts | 256° |
| 2026-04-24 16:55 | 53.82028 | 10.79742 | 902 ft | 104 kts | 256° |
| 2026-04-24 16:55 | 53.81799 | 10.78564 | 748 ft | 105 kts | 253° |
| 2026-04-24 16:55 | 53.81586 | 10.77446 | 608 ft | 98 kts | 252° |
| 2026-04-24 16:55 | 53.81385 | 10.76355 | 468 ft | 97 kts | 253° |
| 2026-04-24 16:56 | 53.81174 | 10.75264 | 341 ft | 97 kts | 250° |
| 2026-04-24 16:56 | 53.80955 | 10.74173 | 223 ft | 100 kts | 253° |
| 2026-04-24 16:56 | 53.80749 | 10.73067 | 72 ft | 90 kts | 254° |
| 2026-04-24 16:56 | 53.80609 | 10.72301 | 52 ft | 34 kts | 253° |
| 2026-04-24 16:57 | 53.80571 | 10.72089 | 51 ft | 13 kts | 253° |
| 2026-04-24 16:57 | 53.80577 | 10.71956 | 51 ft | 9 kts | 287° |
| 2026-04-24 16:57 | 53.80605 | 10.71851 | 52 ft | 9 kts | 293° |
| 2026-04-24 16:57 | 53.80611 | 10.71825 | 54 ft | 0 kts | 292° |
| 2026-04-24 16:58 | 53.80619 | 10.71793 | 56 ft | 8 kts | 292° |
| 2026-04-24 16:58 | 53.80647 | 10.71684 | 55 ft | 12 kts | 294° |
| 2026-04-24 16:58 | 53.80656 | 10.71534 | 56 ft | 14 kts | 252° |
| 2026-04-24 16:58 | 53.80640 | 10.71446 | 54 ft | 4 kts | 253° |
| 2026-04-24 16:59 | 53.80625 | 10.71367 | 54 ft | 9 kts | 251° |
| 2026-04-24 16:59 | 53.80601 | 10.71248 | 55 ft | 12 kts | 252° |
| 2026-04-24 16:59 | 53.80539 | 10.70928 | 51 ft | 18 kts | 251° |
| 2026-04-24 17:00 | 53.80501 | 10.70723 | 50 ft | 12 kts | 252° |
| 2026-04-24 17:00 | 53.80450 | 10.70450 | 52 ft | 9 kts | 277° |
| 2026-04-24 17:00 | 53.80510 | 10.70368 | 52 ft | 14 kts | 326° |
| 2026-04-24 17:01 | 53.80591 | 10.70344 | 53 ft | 5 kts | 225° |
| 2026-04-24 17:01 | 53.80578 | 10.70327 | 73 ft | 1 kts | 239° |
| 2026-04-24 17:02 | 53.80577 | 10.70322 | 74 ft | 0 kts | 238° |